Urb Santa Elena, Puerto Rico
Current Conditions -  °F | °C
As of 5:50 PM on Friday 28 Nov 2014 (Local Time) from TJBQ Reporting Station
Broken Clouds Broken Clouds  
Wind Chill: 79°   Ceiling: 4100
Heat Index: 81°   Visibility: 10mi
Dew Point: 70°   Wind: 6mph
Humidity: 74%   Direction: 70°ENE
Pressure: 29.95"   Gusts: NA
Location:  18.0664°N, 66.9568°W
Report Text: TJBQ 282150Z 07005KT 10SM SCT023 BKN041 BKN048 26/21 A2995 RMK RWY08 ATIS A
Loading
Personal Weather Stations






























Interactive Weather Map New forecast layout! Learn more

10-Day Weather Forecast

Advertisements
Track Severe Weather on mobile